Hubbard Lake, MI (49747)

5:08 AM EST on November 26, 2014 (GMT -0500)
Alpena County Regional | Change Station
CLOSE
Current Station
Airport
Location: Alpena,
Elevation: 689 ft
Nearby Weather Stations

Elev 689 ft 45.07 °N, 83.56 °W | Updated 14 minutes ago

Overcast
Overcast
27 °F
Feels Like 20 °F
N
6
Wind Variable Wind from SW

Today
High -- | Low -- °F
--% Chance of Precip.
Yesterday
High -- | Low -- °F
Precip. -- in
7:46 AM 4:57 PM
Waxing Crescent, 18% visible
Pressure 30.22 in
Visibility 10.0 miles
Clouds Overcast 2900 ft
Windchill 20 °F
Dew Point 19 °F
Humidity 72%
Rainfall 0.00 in
Snow Depth Not available.
UV 0 out of 12
Pollen .10 out of 12
Air Quality Not available.
Flu Activity Not available.
METAR KAPN 260954Z AUTO 23005KT 10SM OVC029 M03/M07 A3019 RMK AO2 SLP234 T10281072

More Conditions Fewer Conditions

Pressure 30.22 in
Visibility 10.0 miles
Clouds Overcast 2900 ft
Windchill 20 °F
Dew Point 19 °F
Humidity 72%
Rainfall 0.00 in
Snow Depth Not available.
UV 0 out of 12
Pollen .10 out of 12
Air Quality Not available.
Flu Activity Not available.
METAR KAPN 260954Z AUTO 23005KT 10SM OVC029 M03/M07 A3019 RMK AO2 SLP234 T10281072

More Conditions Fewer Conditions

Nowcast | as of 5:00 am EST on November 26, 2014

At 6 am...mostly cloudy. Temperature 25. Light winds. At 8 am...mostly cloudy. Temperature 25. Light winds. At 10 am...mostly cloudy. Temperature 27. Light winds. At 12 PM...mostly cloudy. Temperature 30. Light winds.

×

10-Day Weather Forecast

Almanac

Astronomy

Nov. 26, 2014 Rise Set
Actual Time
Civil Twilight
Nautical Twilight
Astronomical Twilight
Moon
Length of Visible Light
Length of Day
Tomorrow will be .
, % of the Moon is Illuminated

Today's Extremes

State Highs State Lows

Community

WunderPhotos

Upload Photos

1,773,704 photos uploaded!

WunderBlogs® & News

Nearby

Air Quality

  Air Quality AQ Index Pollutant
Not available.

Snow Depth

Station Depth Elevation

Earthquake Activity

City Distance Mag. Time & Date
Minimum magnitude displayed is 2.5.

Coastal Water Temperatures

Place Temperature

Nearby Weather Stations